Time;durP1;ratioP1;P1;durP2;ratioP2;P2;SDS_P1;SDS_P2;PMS_P1;PMS_P2;Temp;Humidity;BMP_temperature;BMP_pressure;BME280_temperature;BME280_humidity;BME280_pressure;Samples;Min_cycle;Max_cycle;Signal;HPM_P1;HPM_P2
2022/01/06 00:00:33;;;;;;;23.50;14.33;;;3.60;99.90;;;;;;5037741;28;20901;-64
2022/01/06 00:03:00;;;;;;;22.57;13.40;;;3.60;99.90;;;;;;5051002;28;20564;-64
2022/01/06 00:05:27;;;;;;;29.83;15.03;;;3.60;99.90;;;;;;5038142;28;20471;-64
2022/01/06 00:07:55;;;;;;;19.00;14.80;;;3.70;99.90;;;;;;5038005;28;20475;-64
2022/01/06 00:10:23;;;;;;;30.43;15.53;;;3.70;99.90;;;;;;5038331;28;20458;-64
2022/01/06 00:13:05;;;;;;;32.73;16.50;;;3.70;99.90;;;;;;5037158;28;20502;-64
2022/01/06 00:15:39;;;;;;;31.10;17.40;;;3.70;99.90;;;;;;5038996;28;20463;-64
2022/01/06 00:18:24;;;;;;;33.47;18.37;;;3.80;99.90;;;;;;5038213;28;20478;-64
2022/01/06 00:23:51;;;;;;;28.93;20.20;;;3.80;99.90;;;;;;4993146;28;20416;-64
2022/01/06 00:26:18;;;;;;;30.30;18.27;;;3.80;99.90;;;;;;4995303;28;20550;-64
2022/01/06 00:28:45;;;;;;;30.00;19.97;;;3.80;99.90;;;;;;5022349;28;20846;-64
2022/01/06 00:31:12;;;;;;;26.53;17.87;;;3.80;99.90;;;;;;5056725;28;20498;-64
2022/01/06 00:33:42;;;;;;;31.20;17.70;;;3.80;99.90;;;;;;5057136;28;20470;-64
2022/01/06 00:36:09;;;;;;;24.80;14.03;;;3.80;99.90;;;;;;5057311;28;20544;-64
2022/01/06 00:38:36;;;;;;;28.90;16.10;;;3.80;99.90;;;;;;5056558;28;20766;-64
2022/01/06 00:41:04;;;;;;;25.13;16.70;;;3.80;99.90;;;;;;5056816;28;20809;-64
2022/01/06 00:43:31;;;;;;;31.93;14.63;;;3.80;99.90;;;;;;5055911;28;20857;-64
2022/01/06 00:45:58;;;;;;;25.40;14.97;;;3.80;99.90;;;;;;5056888;28;20466;-64
2022/01/06 00:48:27;;;;;;;25.77;15.00;;;3.80;99.90;;;;;;5056855;28;20823;-64
2022/01/06 00:50:54;;;;;;;28.40;14.77;;;3.80;99.90;;;;;;5053103;28;20934;-64
2022/01/06 00:53:23;;;;;;;27.73;13.40;;;3.70;99.90;;;;;;5040746;28;20761;-64
2022/01/06 00:55:51;;;;;;;27.40;12.20;;;3.70;99.90;;;;;;5037677;28;20887;-64
2022/01/06 00:58:19;;;;;;;28.83;13.93;;;3.70;99.90;;;;;;5037555;28;20476;-64
2022/01/06 01:00:47;;;;;;;24.17;10.73;;;3.70;99.90;;;;;;5037352;28;20474;-64
2022/01/06 01:03:26;;;;;;;26.27;12.87;;;3.70;99.90;;;;;;5036922;28;20475;-64
2022/01/06 01:05:55;;;;;;;22.93;10.53;;;3.70;99.90;;;;;;5037190;28;20569;-64
2022/01/06 01:08:22;;;;;;;20.33;10.80;;;3.70;99.90;;;;;;5037657;28;20475;-64
2022/01/06 01:10:52;;;;;;;20.50;11.77;;;3.70;99.90;;;;;;5038543;28;20520;-64
2022/01/06 01:13:28;;;;;;;22.80;10.53;;;3.70;99.90;;;;;;5040743;28;20556;-64
2022/01/06 01:15:58;;;;;;;19.37;10.27;;;3.60;99.90;;;;;;5039110;28;20995;-64
2022/01/06 01:18:25;;;;;;;22.13;10.70;;;3.70;99.90;;;;;;5037401;28;20498;-64
2022/01/06 01:20:54;;;;;;;21.27;11.00;;;3.60;99.90;;;;;;5037351;28;20944;-64
2022/01/06 01:23:21;;;;;;;26.27;11.00;;;3.60;99.90;;;;;;5047422;28;20900;-64
2022/01/06 01:25:49;;;;;;;25.07;13.27;;;3.50;99.90;;;;;;5056341;28;20470;-64
2022/01/06 01:28:16;;;;;;;19.93;10.43;;;3.40;99.90;;;;;;5038542;28;20490;-64
2022/01/06 01:31:01;;;;;;;20.17;13.00;;;3.40;99.90;;;;;;5037023;28;20468;-64
2022/01/06 01:33:32;;;;;;;32.40;14.17;;;3.30;99.90;;;;;;5050069;28;20549;-64
2022/01/06 01:36:02;;;;;;;34.03;14.40;;;3.30;99.90;;;;;;5056717;28;20531;-64
2022/01/06 01:38:29;;;;;;;30.83;14.93;;;3.20;99.90;;;;;;5056118;28;20808;-64
2022/01/06 01:40:56;;;;;;;27.50;13.63;;;3.20;99.90;;;;;;5055816;28;20498;-64
2022/01/06 01:43:23;;;;;;;27.83;14.40;;;3.20;99.90;;;;;;5056331;28;20466;-64
2022/01/06 01:45:56;;;;;;;30.67;16.33;;;3.20;99.90;;;;;;5056157;28;20473;-64
2022/01/06 01:48:29;;;;;;;24.00;15.17;;;3.20;99.90;;;;;;5056272;28;20883;-64
2022/01/06 01:50:57;;;;;;;34.33;16.73;;;3.20;99.90;;;;;;5055955;28;21447;-64
2022/01/06 01:53:25;;;;;;;31.60;17.33;;;3.30;99.90;;;;;;5054827;28;20541;-64
2022/01/06 01:55:52;;;;;;;25.50;16.43;;;3.30;99.90;;;;;;5056093;28;20482;-64
2022/01/06 01:58:21;;;;;;;36.67;20.17;;;3.30;99.90;;;;;;5056040;28;20837;-64
2022/01/06 02:00:48;;;;;;;29.03;16.67;;;3.30;99.90;;;;;;5055628;28;20528;-64
2022/01/06 02:03:16;;;;;;;36.30;16.50;;;3.30;99.90;;;;;;5051421;28;20600;-64
2022/01/06 02:05:43;;;;;;;30.03;17.23;;;3.30;99.90;;;;;;5056037;28;20466;-64
2022/01/06 02:08:14;;;;;;;26.13;15.10;;;3.30;99.90;;;;;;5055954;28;20481;-64
2022/01/06 02:10:42;;;;;;;33.00;15.07;;;3.30;99.90;;;;;;5056012;28;20471;-64
2022/01/06 02:13:09;;;;;;;26.03;15.70;;;3.30;99.90;;;;;;5036277;28;20517;-64
2022/01/06 02:15:36;;;;;;;30.20;14.93;;;3.30;99.90;;;;;;5036895;28;20490;-64
2022/01/06 02:18:03;;;;;;;28.00;14.60;;;3.20;99.90;;;;;;5036769;28;20489;-64
2022/01/06 02:20:31;;;;;;;34.40;16.20;;;3.30;99.90;;;;;;5040047;28;20466;-63
2022/01/06 02:22:58;;;;;;;27.77;15.50;;;3.30;99.90;;;;;;5052951;28;20493;-62
2022/01/06 02:25:35;;;;;;;32.47;15.07;;;3.20;99.90;;;;;;5040913;28;20525;-62
2022/01/06 02:28:03;;;;;;;21.90;14.00;;;3.20;99.90;;;;;;5053035;28;20502;-62
2022/01/06 02:30:33;;;;;;;24.97;13.50;;;3.20;99.90;;;;;;5059542;28;20474;-62
2022/01/06 02:33:01;;;;;;;31.30;14.63;;;3.20;99.90;;;;;;5059520;28;20466;-63
2022/01/06 02:35:29;;;;;;;24.57;13.13;;;3.10;99.90;;;;;;5058079;28;20463;-62
2022/01/06 02:37:58;;;;;;;25.70;12.63;;;3.10;99.90;;;;;;5039580;28;20495;-62
2022/01/06 02:40:27;;;;;;;29.27;11.87;;;3.10;99.90;;;;;;5038549;28;20482;-63
2022/01/06 02:42:56;;;;;;;19.87;11.40;;;3.10;99.90;;;;;;5052805;28;20498;-63
2022/01/06 02:45:26;;;;;;;16.53;10.73;;;3.10;99.90;;;;;;5057903;28;20902;-63
2022/01/06 02:47:54;;;;;;;23.40;11.90;;;3.10;99.90;;;;;;5058500;28;20462;-63
2022/01/06 02:50:21;;;;;;;22.43;12.20;;;3.10;99.90;;;;;;5050439;28;20466;-63
2022/01/06 02:52:48;;;;;;;23.87;10.97;;;3.10;99.90;;;;;;5052079;28;20551;-63
2022/01/06 02:55:17;;;;;;;18.47;10.30;;;3.10;99.90;;;;;;5058608;28;20557;-63
2022/01/06 02:57:45;;;;;;;25.80;11.17;;;3.10;99.90;;;;;;5058741;28;20884;-63
2022/01/06 03:00:17;;;;;;;19.60;11.57;;;3.10;99.90;;;;;;5058862;28;20466;-63
2022/01/06 03:02:46;;;;;;;22.10;10.47;;;3.10;99.90;;;;;;5058273;28;20498;-63
2022/01/06 03:05:14;;;;;;;17.47;10.10;;;3.10;99.90;;;;;;5058667;28;20478;-63
2022/01/06 03:07:42;;;;;;;22.03;10.23;;;3.10;99.90;;;;;;5058190;28;20473;-63
2022/01/06 03:10:12;;;;;;;16.83;10.93;;;3.10;99.90;;;;;;5058660;28;20508;-63
2022/01/06 03:12:41;;;;;;;17.27;9.20;;;3.10;99.90;;;;;;5041949;28;20486;-63
2022/01/06 03:15:11;;;;;;;17.70;8.73;;;3.10;99.90;;;;;;5042907;28;20887;-63
2022/01/06 03:17:39;;;;;;;18.23;8.83;;;3.10;99.90;;;;;;5039656;28;20517;-63
2022/01/06 03:20:08;;;;;;;22.00;8.43;;;3.00;99.90;;;;;;5039490;28;20854;-63
2022/01/06 03:22:36;;;;;;;14.00;7.87;;;3.00;99.90;;;;;;5053346;28;20490;-63
2022/01/06 03:25:04;;;;;;;20.83;8.27;;;3.10;99.90;;;;;;5058043;28;20466;-63
2022/01/06 03:27:32;;;;;;;18.10;6.80;;;3.00;99.90;;;;;;5058241;28;20805;-63
2022/01/06 03:30:00;;;;;;;15.77;6.83;;;3.00;99.90;;;;;;5058511;28;20470;-63
2022/01/06 03:32:27;;;;;;;21.10;6.93;;;2.90;99.90;;;;;;5058318;28;20462;-63
2022/01/06 03:34:54;;;;;;;22.83;6.40;;;2.90;99.90;;;;;;5057186;28;20822;-63
2022/01/06 03:37:21;;;;;;;26.10;6.20;;;2.80;99.90;;;;;;5052696;28;20471;-63
2022/01/06 03:39:48;;;;;;;20.70;8.00;;;2.80;99.90;;;;;;5038819;28;20521;-63
2022/01/06 03:42:15;;;;;;;16.40;5.33;;;2.70;99.90;;;;;;5050555;28;20504;-63
2022/01/06 03:44:42;;;;;;;17.60;5.60;;;2.70;99.90;;;;;;5052781;28;20525;-63
2022/01/06 03:47:12;;;;;;;21.50;5.33;;;2.70;99.90;;;;;;5057708;28;20504;-64
2022/01/06 03:49:39;;;;;;;18.03;4.90;;;2.80;99.90;;;;;;5057743;28;20885;-63
2022/01/06 03:52:06;;;;;;;20.30;4.97;;;2.70;99.90;;;;;;5051696;28;20992;-64
2022/01/06 03:54:33;;;;;;;20.63;5.63;;;2.70;99.90;;;;;;5038735;28;20521;-63
2022/01/06 03:57:00;;;;;;;19.40;5.07;;;2.60;99.90;;;;;;5038536;28;20495;-63
2022/01/06 03:59:27;;;;;;;19.77;4.90;;;2.50;99.90;;;;;;5038323;28;20527;-64
2022/01/06 04:01:54;;;;;;;11.00;4.70;;;2.50;99.90;;;;;;5038643;28;20561;-64
2022/01/06 04:04:22;;;;;;;22.63;6.67;;;2.50;99.90;;;;;;5037989;28;20892;-63
2022/01/06 04:06:50;;;;;;;18.73;5.83;;;2.40;99.90;;;;;;5049371;28;20531;-63
2022/01/06 04:09:17;;;;;;;16.73;4.83;;;2.40;99.90;;;;;;5057436;28;20564;-63
2022/01/06 04:11:44;;;;;;;18.23;4.80;;;2.40;99.90;;;;;;5048371;28;20519;-63
2022/01/06 04:14:11;;;;;;;26.77;6.10;;;2.30;99.90;;;;;;5038269;28;20798;-63
2022/01/06 04:16:40;;;;;;;16.47;5.07;;;2.30;99.90;;;;;;5037865;28;20547;-63
2022/01/06 04:19:07;;;;;;;14.27;6.60;;;2.30;99.90;;;;;;5038281;28;20518;-63
2022/01/06 04:21:38;;;;;;;20.00;5.53;;;2.30;99.90;;;;;;5043846;28;20474;-63
2022/01/06 04:24:05;;;;;;;21.97;5.80;;;2.40;99.90;;;;;;5055954;28;20587;-63
2022/01/06 04:26:32;;;;;;;17.80;5.57;;;2.30;99.90;;;;;;5056701;28;20599;-63
2022/01/06 04:28:59;;;;;;;13.93;4.70;;;2.30;99.90;;;;;;5056066;28;20466;-63
2022/01/06 04:31:26;;;;;;;10.93;4.63;;;2.20;99.90;;;;;;5056303;28;20531;-64
2022/01/06 04:33:53;;;;;;;14.50;5.30;;;2.20;99.90;;;;;;5056490;28;20888;-64
2022/01/06 04:36:20;;;;;;;12.23;4.97;;;2.10;99.90;;;;;;5056712;28;20466;-64
2022/01/06 04:38:49;;;;;;;18.73;4.83;;;2.10;99.90;;;;;;5056968;28;20847;-64
2022/01/06 04:41:16;;;;;;;16.40;5.10;;;2.20;99.90;;;;;;5056932;28;20495;-64
2022/01/06 04:43:46;;;;;;;18.77;4.33;;;2.20;99.90;;;;;;5056849;28;20501;-64
2022/01/06 04:46:12;;;;;;;15.30;4.57;;;2.20;99.90;;;;;;5056562;28;20512;-64
2022/01/06 04:48:39;;;;;;;15.13;5.57;;;2.20;99.90;;;;;;5056767;28;20520;-65
2022/01/06 04:51:07;;;;;;;22.53;5.90;;;2.10;99.90;;;;;;5056442;28;20473;-65
2022/01/06 04:53:35;;;;;;;18.33;5.37;;;2.20;99.90;;;;;;5054793;28;20466;-64
2022/01/06 04:56:03;;;;;;;19.17;5.77;;;2.10;99.90;;;;;;5037807;28;20474;-64
2022/01/06 04:58:32;;;;;;;17.07;5.50;;;2.10;99.90;;;;;;5037366;28;20498;-64
2022/01/06 05:00:59;;;;;;;20.13;4.80;;;2.10;99.90;;;;;;5036973;28;20506;-64
2022/01/06 05:03:26;;;;;;;22.53;6.37;;;2.10;99.90;;;;;;5037002;28;20543;-64
2022/01/06 05:05:53;;;;;;;17.00;4.00;;;2.10;99.90;;;;;;5042182;28;20516;-64
2022/01/06 05:08:20;;;;;;;18.10;5.03;;;2.00;99.90;;;;;;5056405;28;20561;-64
2022/01/06 05:10:47;;;;;;;16.80;5.17;;;1.90;99.90;;;;;;5055724;28;20520;-63
2022/01/06 05:13:15;;;;;;;28.27;5.23;;;1.90;99.90;;;;;;5036930;28;20482;-64
2022/01/06 05:15:42;;;;;;;16.50;5.27;;;1.80;99.90;;;;;;5041364;28;20517;-63
2022/01/06 05:18:11;;;;;;;15.43;4.80;;;1.70;99.90;;;;;;5037772;28;20463;-63
2022/01/06 05:20:42;;;;;;;17.13;5.10;;;1.70;99.90;;;;;;5037530;28;20463;-63
2022/01/06 05:23:10;;;;;;;16.43;5.77;;;1.70;99.90;;;;;;5053915;28;20581;-63
2022/01/06 05:25:37;;;;;;;19.47;4.77;;;1.70;99.90;;;;;;5056149;28;20480;-63
2022/01/06 05:28:05;;;;;;;15.30;5.17;;;1.60;99.90;;;;;;5056459;28;20469;-63
2022/01/06 05:30:33;;;;;;;16.33;5.27;;;1.50;99.90;;;;;;5056511;28;20465;-62
2022/01/06 05:33:00;;;;;;;17.50;5.17;;;1.50;99.90;;;;;;5056278;28;20528;-62
2022/01/06 05:35:27;;;;;;;15.10;5.03;;;1.50;99.90;;;;;;5056181;28;20466;-62
2022/01/06 05:37:54;;;;;;;23.80;5.90;;;1.60;99.90;;;;;;5056196;28;20466;-62
2022/01/06 05:40:21;;;;;;;17.63;5.43;;;1.60;99.90;;;;;;5056074;28;20524;-62
2022/01/06 05:42:51;;;;;;;18.40;5.50;;;1.60;99.90;;;;;;5051752;28;20494;-62
2022/01/06 05:45:22;;;;;;;20.80;6.33;;;1.70;99.90;;;;;;5036635;28;20913;-62
2022/01/06 05:47:51;;;;;;;16.37;6.23;;;1.60;99.90;;;;;;5039305;28;20758;-62
2022/01/06 05:50:17;;;;;;;18.30;5.90;;;1.60;99.90;;;;;;5037063;28;20467;-62
2022/01/06 05:52:47;;;;;;;13.57;5.57;;;1.60;99.90;;;;;;5049844;28;20466;-61
2022/01/06 05:55:15;;;;;;;15.70;5.57;;;1.50;99.90;;;;;;5055739;28;20763;-60
2022/01/06 05:57:42;;;;;;;21.13;4.90;;;1.50;99.90;;;;;;5045847;28;20764;-61
2022/01/06 06:00:10;;;;;;;21.23;6.23;;;1.50;99.90;;;;;;5040415;28;20486;-61
2022/01/06 06:02:37;;;;;;;11.13;5.73;;;1.50;99.90;;;;;;5042009;28;20589;-61
2022/01/06 06:05:06;;;;;;;20.00;6.43;;;1.40;99.90;;;;;;5048553;28;20519;-58
2022/01/06 06:07:36;;;;;;;16.00;6.10;;;1.40;99.90;;;;;;5049032;28;20475;-61
2022/01/06 06:10:03;;;;;;;16.40;5.30;;;1.40;99.90;;;;;;5044316;28;20969;-61
2022/01/06 06:12:30;;;;;;;24.60;6.70;;;1.40;99.90;;;;;;5040272;28;20595;-61
2022/01/06 06:14:57;;;;;;;21.77;8.80;;;1.40;99.90;;;;;;5040372;28;20528;-59
2022/01/06 06:17:24;;;;;;;17.90;6.40;;;1.30;99.90;;;;;;5051423;28;20568;-57
2022/01/06 06:19:51;;;;;;;22.27;6.83;;;1.30;99.90;;;;;;5048979;28;20463;-58
2022/01/06 06:22:19;;;;;;;15.90;5.30;;;1.30;99.90;;;;;;5048754;28;20486;-60
2022/01/06 06:24:46;;;;;;;23.93;6.73;;;1.40;99.90;;;;;;5058969;28;20505;-59
2022/01/06 06:27:13;;;;;;;21.73;5.63;;;1.40;99.90;;;;;;5048717;28;20568;-57
2022/01/06 06:29:40;;;;;;;26.73;7.93;;;1.40;99.90;;;;;;5047762;28;20522;-56
2022/01/06 06:32:10;;;;;;;21.07;6.50;;;1.40;99.90;;;;;;5054280;28;20485;-58
2022/01/06 06:34:37;;;;;;;22.60;6.90;;;1.40;99.90;;;;;;5062917;28;20527;-57
2022/01/06 06:37:04;;;;;;;17.13;5.63;;;1.40;99.90;;;;;;5044654;28;20474;-55
2022/01/06 06:39:33;;;;;;;23.97;7.27;;;1.40;99.90;;;;;;5044210;28;20560;-57
2022/01/06 06:42:03;;;;;;;19.40;8.90;;;1.40;99.90;;;;;;5044869;28;20832;-57
2022/01/06 06:44:30;;;;;;;32.57;11.63;;;1.40;99.90;;;;;;5045664;28;20584;-55
2022/01/06 06:46:57;;;;;;;30.20;10.87;;;1.40;99.90;;;;;;5045537;28;20893;-58
2022/01/06 06:49:24;;;;;;;25.93;7.97;;;1.50;99.90;;;;;;5052403;28;20960;-54
2022/01/06 06:51:51;;;;;;;21.33;10.43;;;1.60;99.90;;;;;;5048756;28;20478;-53
2022/01/06 06:54:21;;;;;;;15.80;7.70;;;1.60;99.90;;;;;;5045497;28;20565;-56
2022/01/06 06:56:49;;;;;;;18.13;6.87;;;1.60;99.90;;;;;;5044778;28;20514;-57
2022/01/06 06:59:19;;;;;;;21.20;6.90;;;1.60;99.90;;;;;;5045164;28;20517;-51
2022/01/06 07:01:47;;;;;;;15.53;6.33;;;1.60;99.90;;;;;;5045221;28;20474;-58
2022/01/06 07:04:14;;;;;;;19.77;7.13;;;1.70;99.90;;;;;;5044440;28;20582;-57
2022/01/06 07:06:41;;;;;;;25.70;7.70;;;1.70;99.90;;;;;;5044109;28;20523;-53
2022/01/06 07:09:08;;;;;;;16.07;6.87;;;1.60;99.90;;;;;;5044962;28;20466;-56
2022/01/06 07:11:35;;;;;;;25.53;8.93;;;1.70;99.90;;;;;;5046595;28;20529;-56
2022/01/06 07:14:09;;;;;;;17.47;8.60;;;1.70;99.90;;;;;;5041488;28;20455;-57
2022/01/06 07:16:36;;;;;;;46.33;17.23;;;1.70;99.90;;;;;;5046067;28;20544;-57
2022/01/06 07:19:03;;;;;;;50.03;17.00;;;1.70;99.90;;;;;;5058481;28;20485;-57
2022/01/06 07:21:30;;;;;;;31.30;11.13;;;1.70;99.90;;;;;;5041481;28;21221;-53
2022/01/06 07:23:57;;;;;;;23.47;11.00;;;1.70;99.90;;;;;;5058344;28;20575;-55
2022/01/06 07:26:24;;;;;;;18.53;8.37;;;1.60;99.90;;;;;;5049655;28;20528;-55
2022/01/06 07:28:54;;;;;;;23.30;7.73;;;1.60;99.90;;;;;;5040307;28;20493;-56
2022/01/06 07:31:22;;;;;;;25.70;8.00;;;1.60;99.90;;;;;;5041425;28;20553;-59
2022/01/06 07:33:49;;;;;;;22.40;7.07;;;1.70;99.90;;;;;;5056523;28;20859;-58
2022/01/06 07:36:16;;;;;;;17.47;7.67;;;1.50;99.90;;;;;;5040157;28;20458;-59
2022/01/06 07:38:43;;;;;;;18.40;7.60;;;1.60;99.90;;;;;;5051355;28;20467;-56
2022/01/06 07:41:10;;;;;;;23.63;8.23;;;1.50;99.90;;;;;;5039636;28;20544;-56
2022/01/06 07:43:37;;;;;;;20.33;8.70;;;1.50;99.90;;;;;;5048978;28;20482;-55
2022/01/06 07:46:04;;;;;;;21.87;7.93;;;1.60;99.90;;;;;;5057186;28;20493;-57
2022/01/06 07:48:48;;;;;;;19.90;8.73;;;1.60;99.90;;;;;;5042013;28;20531;-56
2022/01/06 07:51:18;;;;;;;31.80;9.80;;;1.50;99.90;;;;;;5043211;28;20816;-57
2022/01/06 07:53:48;;;;;;;28.77;11.20;;;1.60;99.90;;;;;;5055532;28;20466;-57
2022/01/06 07:56:16;;;;;;;31.40;11.23;;;1.60;99.90;;;;;;5042983;28;20742;-55
2022/01/06 07:58:47;;;;;;;30.37;12.70;;;1.60;99.90;;;;;;5043725;28;20466;-58
2022/01/06 08:01:15;;;;;;;26.83;12.80;;;1.60;99.90;;;;;;5043541;28;20454;-51
2022/01/06 08:03:44;;;;;;;25.13;11.63;;;1.60;99.90;;;;;;5047272;28;20490;-59
2022/01/06 08:06:12;;;;;;;25.27;12.67;;;1.60;99.90;;;;;;5043435;28;20466;-55
2022/01/06 08:08:39;;;;;;;26.80;13.80;;;1.50;99.90;;;;;;5043913;28;20880;-57
2022/01/06 08:11:06;;;;;;;27.73;13.57;;;1.60;99.90;;;;;;5043789;28;20539;-56
2022/01/06 08:13:33;;;;;;;28.50;14.80;;;1.70;99.90;;;;;;5044123;28;20937;-54
2022/01/06 08:16:00;;;;;;;30.30;13.17;;;1.80;99.90;;;;;;5047840;28;20462;-58
2022/01/06 08:18:28;;;;;;;30.73;13.80;;;1.80;99.90;;;;;;5043403;28;20551;-56
2022/01/06 08:20:59;;;;;;;31.13;14.63;;;1.80;99.90;;;;;;5042965;28;20548;-56
2022/01/06 08:23:29;;;;;;;33.70;14.23;;;1.80;99.90;;;;;;5051307;28;20563;-56
2022/01/06 08:25:56;;;;;;;29.37;14.97;;;1.90;99.90;;;;;;5043415;28;20779;-58
2022/01/06 08:28:26;;;;;;;25.27;13.47;;;2.00;99.90;;;;;;5043246;28;20466;-57
2022/01/06 08:30:53;;;;;;;37.17;15.67;;;2.00;99.90;;;;;;5043539;28;20491;-56
2022/01/06 08:33:20;;;;;;;31.23;14.87;;;2.00;99.90;;;;;;5042816;28;20495;-59
2022/01/06 08:35:47;;;;;;;35.33;16.43;;;2.00;99.90;;;;;;5042971;28;20463;-59
2022/01/06 08:38:19;;;;;;;41.47;17.80;;;2.00;99.90;;;;;;5042628;28;20549;-55
2022/01/06 08:40:47;;;;;;;38.43;18.43;;;2.00;99.90;;;;;;5042502;28;20463;-57
2022/01/06 08:43:14;;;;;;;38.50;18.43;;;2.00;99.90;;;;;;5042201;28;20959;-56
2022/01/06 08:45:42;;;;;;;43.07;18.70;;;2.00;99.90;;;;;;5042254;28;20499;-57
2022/01/06 08:48:09;;;;;;;36.70;19.53;;;2.00;99.90;;;;;;5041909;28;20463;-58
2022/01/06 08:50:36;;;;;;;36.83;19.07;;;2.00;99.90;;;;;;5042212;28;20506;-59
2022/01/06 08:53:03;;;;;;;31.83;17.93;;;2.00;99.90;;;;;;5053028;28;20562;-59
2022/01/06 08:55:32;;;;;;;38.47;18.73;;;2.00;99.90;;;;;;5042963;28;20868;-59
2022/01/06 08:57:59;;;;;;;42.77;19.23;;;1.90;99.90;;;;;;5047103;28;20865;-58
2022/01/06 09:00:31;;;;;;;38.27;19.33;;;2.10;99.90;;;;;;5043705;28;20761;-57
2022/01/06 09:02:59;;;;;;;39.77;18.73;;;2.00;99.90;;;;;;5043769;28;20437;-59
2022/01/06 09:05:26;;;;;;;29.43;18.00;;;2.10;99.90;;;;;;5048127;28;20552;-58
2022/01/06 09:07:53;;;;;;;32.67;16.67;;;2.20;99.90;;;;;;5045632;28;20517;-60
2022/01/06 09:10:23;;;;;;;34.80;18.20;;;2.30;99.90;;;;;;5038476;28;20467;-60
2022/01/06 09:12:53;;;;;;;26.93;17.80;;;2.40;99.90;;;;;;5042512;28;20487;-60
2022/01/06 09:15:20;;;;;;;30.20;17.70;;;2.50;99.90;;;;;;5043337;28;20465;-59
2022/01/06 09:17:47;;;;;;;35.03;18.63;;;2.60;99.90;;;;;;5045680;28;20497;-59
2022/01/06 09:20:14;;;;;;;34.93;17.13;;;2.50;99.90;;;;;;5047280;28;20879;-58
2022/01/06 09:22:43;;;;;;;31.83;16.20;;;2.50;99.90;;;;;;5054774;28;20466;-54
2022/01/06 09:25:10;;;;;;;37.00;19.23;;;2.50;99.90;;;;;;5040522;28;20522;-58
2022/01/06 09:27:37;;;;;;;28.43;18.70;;;2.60;99.90;;;;;;5040218;28;20506;-59
2022/01/06 09:30:07;;;;;;;33.90;17.90;;;2.60;99.90;;;;;;5047649;28;20915;-56
2022/01/06 09:32:35;;;;;;;32.17;17.73;;;2.60;99.90;;;;;;5047554;28;20513;-58
2022/01/06 09:35:03;;;;;;;36.87;20.23;;;2.60;99.90;;;;;;5055467;28;20554;-59
2022/01/06 09:37:31;;;;;;;42.47;21.37;;;2.60;99.90;;;;;;5047357;28;20467;-57
2022/01/06 09:40:00;;;;;;;39.60;20.40;;;2.80;99.90;;;;;;5047932;28;20494;-58
2022/01/06 09:42:27;;;;;;;43.90;20.57;;;2.90;99.90;;;;;;5043266;28;20469;-60
2022/01/06 09:44:55;;;;;;;34.00;18.83;;;3.10;99.90;;;;;;5044557;28;20857;-56
2022/01/06 09:47:24;;;;;;;37.70;19.30;;;3.10;99.90;;;;;;5046448;28;20871;-60
2022/01/06 09:49:51;;;;;;;33.50;20.10;;;3.10;99.90;;;;;;5047938;28;20968;-59
2022/01/06 09:52:22;;;;;;;37.53;19.87;;;3.00;99.90;;;;;;5053229;28;20478;-60
2022/01/06 09:54:49;;;;;;;49.40;20.77;;;3.00;99.90;;;;;;5046114;28;21052;-59
2022/01/06 09:57:18;;;;;;;44.43;20.90;;;3.10;99.90;;;;;;5040610;28;20498;-61
2022/01/06 09:59:45;;;;;;;34.13;19.50;;;3.20;99.90;;;;;;5041275;28;20779;-60
2022/01/06 10:02:16;;;;;;;36.63;21.53;;;3.30;99.90;;;;;;5042219;28;20516;-61
2022/01/06 10:04:45;;;;;;;34.97;20.57;;;3.40;99.90;;;;;;5041659;28;20942;-61
2022/01/06 10:07:15;;;;;;;39.10;19.03;;;3.30;99.90;;;;;;5040800;28;20512;-60
2022/01/06 10:09:45;;;;;;;47.20;21.63;;;3.40;99.90;;;;;;5042682;28;20560;-60
2022/01/06 10:12:14;;;;;;;41.03;22.20;;;3.50;99.90;;;;;;5047518;28;20507;-61
2022/01/06 10:14:47;;;;;;;46.70;27.60;;;3.70;99.90;;;;;;5044465;28;20501;-60
2022/01/06 10:17:17;;;;;;;51.17;27.60;;;3.80;99.90;;;;;;5043616;28;20463;-62
2022/01/06 10:19:46;;;;;;;44.27;25.73;;;3.90;99.90;;;;;;5043605;28;20882;-62
2022/01/06 10:22:16;;;;;;;46.80;26.43;;;4.10;99.90;;;;;;5052307;28;20501;-62
2022/01/06 10:24:47;;;;;;;37.37;22.50;;;4.30;99.90;;;;;;5044106;28;20843;-61
2022/01/06 10:27:15;;;;;;;35.53;22.20;;;4.40;99.90;;;;;;5044964;28;20462;-61
2022/01/06 10:29:47;;;;;;;34.10;20.40;;;4.50;99.90;;;;;;5044362;28;20510;-62
2022/01/06 10:32:17;;;;;;;34.93;21.60;;;4.50;99.90;;;;;;5043082;28;20521;-62
2022/01/06 10:34:48;;;;;;;34.40;22.20;;;4.40;99.90;;;;;;5043783;28;20823;-62
2022/01/06 10:37:23;;;;;;;37.83;23.33;;;4.40;99.90;;;;;;5043989;28;20520;-62
2022/01/06 10:39:53;;;;;;;40.17;21.37;;;4.60;99.90;;;;;;5051698;28;20523;-62
2022/01/06 10:42:26;;;;;;;30.93;21.00;;;4.50;99.90;;;;;;5055062;28;20462;-62
2022/01/06 10:45:04;;;;;;;43.10;20.70;;;4.50;99.90;;;;;;5053327;28;20490;-62
2022/01/06 10:47:33;;;;;;;32.73;21.90;;;4.50;99.90;;;;;;5052373;28;20469;-62
2022/01/06 10:50:13;;;;;;;31.20;21.50;;;4.30;99.90;;;;;;5051753;28;20458;-62
2022/01/06 10:52:42;;;;;;;37.70;19.77;;;4.40;99.90;;;;;;5054350;28;20471;-62
2022/01/06 10:55:11;;;;;;;40.97;21.03;;;4.30;99.90;;;;;;5050890;28;20525;-62
2022/01/06 10:57:53;;;;;;;32.43;19.87;;;4.30;99.90;;;;;;5053936;28;20463;-62
2022/01/06 11:00:21;;;;;;;35.47;21.60;;;4.40;99.90;;;;;;5052353;28;20442;-62
2022/01/06 11:02:48;;;;;;;33.90;20.70;;;4.40;99.90;;;;;;5053056;28;20489;-62
2022/01/06 11:05:16;;;;;;;32.27;18.87;;;4.30;99.90;;;;;;5054462;28;20505;-62
2022/01/06 11:07:46;;;;;;;32.30;19.77;;;4.40;99.90;;;;;;5051565;28;20454;-62
2022/01/06 11:10:16;;;;;;;30.80;20.73;;;4.40;99.90;;;;;;5052118;28;20463;-62
2022/01/06 11:12:43;;;;;;;44.73;21.37;;;4.40;99.90;;;;;;5053171;28;20490;-62
2022/01/06 11:15:11;;;;;;;36.37;21.57;;;4.40;99.90;;;;;;5052642;28;20536;-62
2022/01/06 11:17:39;;;;;;;36.77;21.27;;;4.30;99.90;;;;;;5050726;28;20569;-62
2022/01/06 11:20:09;;;;;;;38.17;21.43;;;4.20;99.90;;;;;;5052422;28;20819;-62
2022/01/06 11:22:48;;;;;;;36.87;21.80;;;4.10;99.90;;;;;;5051901;28;20532;-62
2022/01/06 11:25:15;;;;;;;36.03;21.70;;;4.00;99.90;;;;;;5049300;28;20579;-62
2022/01/06 11:27:45;;;;;;;38.73;20.83;;;3.90;99.90;;;;;;5052607;28;20498;-62
2022/01/06 11:30:16;;;;;;;43.53;23.10;;;3.90;99.90;;;;;;5043696;28;20466;-62
2022/01/06 11:32:44;;;;;;;39.63;20.50;;;3.90;99.90;;;;;;5046463;28;20783;-62
2022/01/06 11:35:16;;;;;;;35.60;20.40;;;3.80;99.90;;;;;;5044960;28;20459;-61
2022/01/06 11:37:46;;;;;;;37.50;20.93;;;3.70;99.90;;;;;;5044722;28;20503;-62
2022/01/06 11:40:17;;;;;;;40.60;22.73;;;3.60;99.90;;;;;;5051209;28;20870;-61
2022/01/06 11:42:56;;;;;;;41.43;22.40;;;3.60;99.90;;;;;;5053332;28;20491;-62
2022/01/06 11:45:23;;;;;;;40.00;21.40;;;3.60;99.90;;;;;;5045023;28;20495;-61
2022/01/06 11:48:00;;;;;;;41.80;21.53;;;3.70;99.90;;;;;;5044775;28;20517;-62
2022/01/06 11:50:27;;;;;;;43.57;21.90;;;3.70;99.90;;;;;;5044864;28;20474;-61
2022/01/06 11:53:00;;;;;;;41.20;22.33;;;3.80;99.90;;;;;;5055445;28;20498;-62
2022/01/06 11:55:34;;;;;;;49.27;24.50;;;3.90;99.90;;;;;;5043907;28;20466;-62
2022/01/06 11:58:09;;;;;;;34.23;22.30;;;4.10;99.90;;;;;;5052162;28;20490;-62
2022/01/06 12:00:42;;;;;;;35.43;22.50;;;4.10;99.90;;;;;;5043269;28;20521;-62
2022/01/06 12:03:11;;;;;;;37.80;22.17;;;4.00;99.90;;;;;;5044563;28;20470;-62
2022/01/06 12:05:43;;;;;;;39.83;22.27;;;3.90;99.90;;;;;;5043130;28;20502;-62
2022/01/06 12:08:12;;;;;;;40.30;22.10;;;3.90;99.90;;;;;;5058193;28;20809;-62
2022/01/06 12:10:43;;;;;;;38.37;21.07;;;4.00;99.90;;;;;;5043561;28;20462;-62
2022/01/06 12:13:11;;;;;;;38.30;23.20;;;3.90;99.90;;;;;;5041054;28;20835;-62
2022/01/06 12:15:57;;;;;;;40.57;23.60;;;4.00;99.90;;;;;;5048922;28;20455;-62
2022/01/06 12:18:26;;;;;;;35.37;21.20;;;4.00;99.90;;;;;;5053566;28;20512;-62
2022/01/06 12:20:54;;;;;;;33.13;20.97;;;4.00;99.90;;;;;;5054104;28;20858;-62
2022/01/06 12:23:26;;;;;;;39.87;21.60;;;3.90;99.90;;;;;;5053390;28;20488;-62
2022/01/06 12:25:57;;;;;;;32.67;20.10;;;3.80;99.90;;;;;;5040717;28;20533;-62
2022/01/06 12:28:25;;;;;;;39.00;21.73;;;3.60;99.90;;;;;;5049232;28;20459;-62
2022/01/06 12:30:56;;;;;;;41.57;22.73;;;3.40;99.90;;;;;;5052301;28;20514;-62
2022/01/06 12:33:31;;;;;;;34.63;21.10;;;3.40;99.90;;;;;;5048815;28;20458;-62
2022/01/06 12:36:06;;;;;;;40.77;23.03;;;3.30;99.90;;;;;;5051578;28;20458;-62
2022/01/06 12:38:37;;;;;;;34.83;23.60;;;3.40;99.90;;;;;;5051075;28;20515;-62
2022/01/06 12:41:04;;;;;;;40.50;22.20;;;3.30;99.90;;;;;;5051735;28;20467;-62
2022/01/06 12:43:33;;;;;;;45.30;22.47;;;3.40;99.90;;;;;;5049455;28;20513;-62
2022/01/06 12:46:07;;;;;;;46.73;25.70;;;3.40;99.90;;;;;;5052581;28;20543;-62
2022/01/06 12:48:38;;;;;;;37.03;23.70;;;3.40;99.90;;;;;;5053540;28;20458;-62
2022/01/06 12:51:05;;;;;;;40.90;23.10;;;3.50;99.90;;;;;;5054267;28;20829;-62